Terminal Aerodrome Forecast
Issued by NWS

Current Version | Previous Version | Text Only | Print | Product List | Glossary On
Versions: 1 2 3 4 5 6 7 8 9 10 11 12 13 14 15 16 17 18 19 20 21 22 23 24 25 26 27 28
000
FTUS43 KDVN 260500
TAFBRL
TAF
KBRL 260520Z 2606/2706 14006KT P6SM SCT050 BKN080
     FM260900 15006KT P6SM SCT050
     FM261500 01005KT P6SM SCT050 PROB30 2620/2702 3SM TSRA BKN030CB
      OVC050=

USA.gov is the U.S. government's official web portal to all federal, state and local government web resources and services.